Time;durP1;ratioP1;P1;durP2;ratioP2;P2;SDS_P1;SDS_P2;PMS_P1;PMS_P2;Temp;Humidity;BMP_temperature;BMP_pressure;BME280_temperature;BME280_humidity;BME280_pressure;Samples;Min_cycle;Max_cycle;Signal;HPM_P1;HPM_P2
2023/08/09 00:00:52;;;;;;;4.30;1.88;;;13.50;99.90;;;;;;4873778;29;20049;-72
2023/08/09 00:03:17;;;;;;;7.18;2.08;;;13.50;99.90;;;;;;4886835;29;20081;-73
2023/08/09 00:05:43;;;;;;;4.93;1.80;;;13.40;99.90;;;;;;4892289;29;20143;-72
2023/08/09 00:08:09;;;;;;;5.80;2.00;;;13.40;99.90;;;;;;4892551;29;20085;-73
2023/08/09 00:10:35;;;;;;;3.72;1.80;;;13.40;99.90;;;;;;4881116;29;20053;-72
2023/08/09 00:13:02;;;;;;;9.10;2.17;;;13.40;99.90;;;;;;4869059;29;20403;-73
2023/08/09 00:15:28;;;;;;;10.75;2.00;;;13.40;99.90;;;;;;4879056;29;20059;-72
2023/08/09 00:17:54;;;;;;;6.00;1.88;;;13.40;99.90;;;;;;4895087;29;20041;-72
2023/08/09 00:20:22;;;;;;;7.78;2.08;;;13.30;99.90;;;;;;4880004;29;20052;-73
2023/08/09 00:22:49;;;;;;;9.23;2.53;;;13.30;99.90;;;;;;4854210;29;20046;-71
2023/08/09 00:43:32;;;;;;;7.13;2.08;;;13.30;99.90;;;;;;5108577;23;20057;-73
2023/08/09 00:45:59;;;;;;;6.15;1.70;;;13.20;99.90;;;;;;4880101;29;20427;-72
2023/08/09 00:48:25;;;;;;;4.10;1.63;;;13.20;99.90;;;;;;4881486;29;20056;-73
2023/08/09 00:50:50;;;;;;;6.95;1.92;;;13.20;99.90;;;;;;4879982;29;20049;-73
2023/08/09 00:53:17;;;;;;;4.03;1.88;;;13.20;99.90;;;;;;4881173;29;20160;-73
2023/08/09 00:55:42;;;;;;;3.90;1.70;;;13.20;99.90;;;;;;4880863;29;20045;-72
2023/08/09 00:58:08;;;;;;;5.82;1.90;;;13.20;99.90;;;;;;4880242;29;20133;-72
2023/08/09 01:00:34;;;;;;;6.28;1.67;;;13.10;99.90;;;;;;4864790;29;20060;-72
2023/08/09 01:03:00;;;;;;;8.23;2.03;;;13.10;99.90;;;;;;4862782;29;20120;-72
2023/08/09 01:05:58;;;;;;;7.38;1.92;;;13.10;99.90;;;;;;4849929;29;20065;-73
2023/08/09 01:08:47;;;;;;;6.75;1.67;;;13.10;99.90;;;;;;4873368;29;20092;-73
2023/08/09 01:11:22;;;;;;;6.00;1.70;;;13.10;99.90;;;;;;4879667;29;20052;-73
2023/08/09 01:13:52;;;;;;;2.83;1.42;;;13.10;99.90;;;;;;4880409;29;20048;-73
2023/08/09 01:16:20;;;;;;;4.22;1.40;;;13.00;99.90;;;;;;4880736;29;20048;-73
2023/08/09 01:18:48;;;;;;;5.50;1.70;;;13.00;99.90;;;;;;4879282;29;20407;-73
2023/08/09 01:21:17;;;;;;;5.45;1.90;;;13.00;99.90;;;;;;4879159;29;20052;-73
2023/08/09 01:23:44;;;;;;;5.57;1.75;;;13.00;99.90;;;;;;4879729;29;20041;-74
2023/08/09 01:26:10;;;;;;;4.47;1.52;;;13.00;99.90;;;;;;4864685;29;20115;-73
2023/08/09 01:28:36;;;;;;;7.88;2.33;;;13.00;99.90;;;;;;4876278;29;20045;-73
2023/08/09 01:31:03;;;;;;;5.60;1.77;;;12.90;99.90;;;;;;4860491;29;20159;-74
2023/08/09 01:33:29;;;;;;;4.20;1.50;;;12.90;99.90;;;;;;4877402;29;20403;-73
2023/08/09 01:36:11;;;;;;;5.68;1.60;;;12.90;99.90;;;;;;4878317;29;20060;-73
2023/08/09 01:38:43;;;;;;;5.93;1.75;;;12.90;99.90;;;;;;4880937;29;20045;-74
2023/08/09 01:41:10;;;;;;;4.95;1.70;;;12.90;99.90;;;;;;4879165;29;20056;-72
2023/08/09 01:43:37;;;;;;;5.60;1.90;;;12.90;99.90;;;;;;4888594;29;20059;-72
2023/08/09 01:46:03;;;;;;;4.32;1.67;;;12.90;99.90;;;;;;4881399;29;20080;-73
2023/08/09 01:48:29;;;;;;;6.85;1.98;;;12.90;99.90;;;;;;4878230;29;20132;-73
2023/08/09 01:50:56;;;;;;;6.97;1.75;;;12.90;99.90;;;;;;4846349;29;20124;-73
2023/08/09 01:53:22;;;;;;;5.65;1.70;;;12.90;99.90;;;;;;4881783;29;20041;-73
2023/08/09 01:55:48;;;;;;;5.22;1.73;;;12.90;99.90;;;;;;4882759;29;20124;-72
2023/08/09 01:58:13;;;;;;;6.00;2.03;;;12.80;99.90;;;;;;4880407;29;20052;-74
2023/08/09 02:00:39;;;;;;;6.53;1.60;;;12.80;99.90;;;;;;4877799;29;20170;-73
2023/08/09 02:03:06;;;;;;;4.07;2.03;;;12.80;99.90;;;;;;4878034;29;20053;-73
2023/08/09 02:05:32;;;;;;;4.07;1.75;;;12.80;99.90;;;;;;4862049;29;20057;-73
2023/08/09 02:07:58;;;;;;;5.07;1.60;;;12.80;99.90;;;;;;4878894;29;20147;-73
2023/08/09 02:10:23;;;;;;;5.97;1.45;;;12.80;99.90;;;;;;4862444;29;20057;-73
2023/08/09 02:12:50;;;;;;;5.63;1.67;;;12.80;99.90;;;;;;4861124;29;20068;-73
2023/08/09 02:15:16;;;;;;;7.97;1.67;;;12.80;99.90;;;;;;4861645;29;20048;-72
2023/08/09 02:17:44;;;;;;;4.65;2.03;;;12.70;99.90;;;;;;4878617;29;20136;-73
2023/08/09 02:20:11;;;;;;;6.95;2.25;;;12.80;99.90;;;;;;4878774;29;20048;-72
2023/08/09 02:22:37;;;;;;;7.30;1.65;;;12.80;99.90;;;;;;4878134;29;20098;-73
2023/08/09 02:25:04;;;;;;;3.85;1.65;;;12.70;99.90;;;;;;4878159;29;20080;-73
2023/08/09 02:27:29;;;;;;;5.50;1.90;;;12.70;99.90;;;;;;4879086;29;20117;-73
2023/08/09 02:29:55;;;;;;;5.18;2.22;;;12.70;99.90;;;;;;4878717;29;20068;-73
2023/08/09 02:32:21;;;;;;;6.78;2.10;;;12.70;99.90;;;;;;4877083;29;20242;-73
2023/08/09 02:34:47;;;;;;;11.77;1.88;;;12.70;99.90;;;;;;4864210;29;20535;-73
2023/08/09 02:37:12;;;;;;;4.57;1.80;;;12.70;99.90;;;;;;4861654;29;20068;-73
2023/08/09 02:39:38;;;;;;;6.10;1.70;;;12.70;99.90;;;;;;4879494;29;20053;-73
2023/08/09 02:42:04;;;;;;;4.82;1.60;;;12.60;99.90;;;;;;4877044;29;20117;-71
2023/08/09 02:44:32;;;;;;;7.97;1.85;;;12.60;99.90;;;;;;4879430;29;20124;-73
2023/08/09 02:46:58;;;;;;;3.67;1.70;;;12.60;99.90;;;;;;4877689;29;20109;-72
2023/08/09 02:49:24;;;;;;;5.25;1.90;;;12.60;99.90;;;;;;4878269;29;20052;-73
2023/08/09 02:51:50;;;;;;;6.43;1.75;;;12.60;99.90;;;;;;4878962;29;20049;-74
2023/08/09 02:54:16;;;;;;;4.05;1.60;;;12.60;99.90;;;;;;4851898;29;20045;-72
2023/08/09 02:56:42;;;;;;;7.60;1.90;;;12.60;99.90;;;;;;4889856;29;20113;-73
2023/08/09 02:59:07;;;;;;;6.05;1.88;;;12.60;99.90;;;;;;4889504;29;20369;-71
2023/08/09 03:01:33;;;;;;;5.10;1.83;;;12.60;99.90;;;;;;4874690;29;20048;-73
2023/08/09 03:03:59;;;;;;;5.07;2.00;;;12.50;99.90;;;;;;4846295;29;20048;-73
2023/08/09 03:06:25;;;;;;;12.45;2.25;;;12.50;99.90;;;;;;4867786;29;20131;-73
2023/08/09 03:08:52;;;;;;;4.68;1.60;;;12.50;99.90;;;;;;4863556;29;20183;-74
2023/08/09 03:11:19;;;;;;;7.32;1.77;;;12.50;99.90;;;;;;4877973;29;20057;-72
2023/08/09 03:13:45;;;;;;;6.30;1.63;;;12.50;99.90;;;;;;4877338;29;20049;-72
2023/08/09 03:16:12;;;;;;;5.20;1.83;;;12.50;99.90;;;;;;4877542;29;20037;-73
2023/08/09 03:18:39;;;;;;;5.72;1.58;;;12.50;99.90;;;;;;4881642;29;20375;-73
2023/08/09 03:21:05;;;;;;;5.45;1.80;;;12.50;99.90;;;;;;4862122;29;20061;-72
2023/08/09 03:23:30;;;;;;;7.35;2.10;;;12.50;99.90;;;;;;4877280;29;20056;-72
2023/08/09 03:25:56;;;;;;;5.75;1.80;;;12.50;99.90;;;;;;4878142;29;20657;-73
2023/08/09 03:28:22;;;;;;;10.30;1.73;;;12.40;99.90;;;;;;4877144;29;20503;-73
2023/08/09 03:30:48;;;;;;;8.20;1.65;;;12.50;99.90;;;;;;4877335;29;20487;-73
2023/08/09 03:33:14;;;;;;;6.55;1.50;;;12.50;99.90;;;;;;4861770;29;20057;-73
2023/08/09 03:35:40;;;;;;;5.43;1.90;;;12.50;99.90;;;;;;4889724;29;20146;-73
2023/08/09 03:38:06;;;;;;;3.42;1.55;;;12.50;99.90;;;;;;4865366;29;20132;-73
2023/08/09 03:40:31;;;;;;;7.47;1.98;;;12.50;99.90;;;;;;4877242;29;20057;-72
2023/08/09 03:42:57;;;;;;;5.78;1.67;;;12.40;99.90;;;;;;4878995;29;20135;-74
2023/08/09 03:45:23;;;;;;;4.10;1.55;;;12.50;99.90;;;;;;4865410;29;20063;-73
2023/08/09 03:47:49;;;;;;;6.63;2.17;;;12.50;99.90;;;;;;4891998;29;20534;-72
2023/08/09 03:50:15;;;;;;;3.92;1.83;;;12.40;99.90;;;;;;4883694;29;20049;-72
2023/08/09 03:52:41;;;;;;;5.80;1.60;;;12.40;99.90;;;;;;4863556;29;20044;-73
2023/08/09 03:55:07;;;;;;;4.85;1.83;;;12.40;99.90;;;;;;4878348;29;20054;-72
2023/08/09 03:57:33;;;;;;;6.28;1.90;;;12.30;99.90;;;;;;4877711;29;20064;-75
2023/08/09 03:59:58;;;;;;;4.97;1.60;;;12.30;99.90;;;;;;4879370;29;20049;-75
2023/08/09 04:02:24;;;;;;;3.53;1.60;;;12.30;99.90;;;;;;4865396;29;20452;-74
2023/08/09 04:04:50;;;;;;;6.63;1.73;;;12.40;99.90;;;;;;4881045;29;20088;-73
2023/08/09 04:07:16;;;;;;;5.53;1.80;;;12.30;99.90;;;;;;4865582;29;20118;-73
2023/08/09 04:09:42;;;;;;;3.75;1.55;;;12.30;99.90;;;;;;4887062;29;20407;-72
2023/08/09 04:12:08;;;;;;;3.95;1.60;;;12.20;99.90;;;;;;4867780;29;20128;-73
2023/08/09 04:14:34;;;;;;;4.38;1.90;;;12.20;99.90;;;;;;4882632;29;20048;-73
2023/08/09 04:16:59;;;;;;;4.20;2.05;;;12.20;99.90;;;;;;4887448;29;20075;-73
2023/08/09 04:19:26;;;;;;;7.82;2.00;;;12.20;99.90;;;;;;4864917;29;20617;-74
2023/08/09 04:21:53;;;;;;;4.43;1.58;;;12.30;99.90;;;;;;4881880;29;20045;-72
2023/08/09 04:24:19;;;;;;;7.00;2.10;;;12.30;99.90;;;;;;4881521;29;20101;-73
2023/08/09 04:26:44;;;;;;;6.10;1.92;;;12.30;99.90;;;;;;4883282;29;20044;-73
2023/08/09 04:29:10;;;;;;;7.18;1.95;;;12.20;99.90;;;;;;4869744;29;20052;-73
2023/08/09 04:31:36;;;;;;;13.93;2.25;;;12.20;99.90;;;;;;4879210;29;20087;-73
2023/08/09 04:34:03;;;;;;;4.95;2.00;;;12.20;99.90;;;;;;4880932;29;20060;-73
2023/08/09 04:36:31;;;;;;;4.60;1.80;;;12.20;99.90;;;;;;4880347;29;20258;-74
2023/08/09 04:39:00;;;;;;;4.57;1.92;;;12.20;99.90;;;;;;4882191;29;20037;-73
2023/08/09 04:41:26;;;;;;;8.20;1.70;;;12.20;99.90;;;;;;4881394;29;20381;-74
2023/08/09 04:43:51;;;;;;;6.63;1.70;;;12.20;99.90;;;;;;4879588;29;20057;-73
2023/08/09 04:46:18;;;;;;;3.78;1.70;;;12.30;99.90;;;;;;4879903;29;20057;-74
2023/08/09 04:48:44;;;;;;;3.88;1.83;;;12.30;99.90;;;;;;4884651;29;20120;-73
2023/08/09 04:51:10;;;;;;;4.32;1.70;;;12.30;99.90;;;;;;4887440;29;20566;-73
2023/08/09 04:53:36;;;;;;;5.53;2.05;;;12.40;99.90;;;;;;4879624;29;20176;-73
2023/08/09 04:56:03;;;;;;;4.28;1.98;;;12.40;99.90;;;;;;4879073;29;20112;-73
2023/08/09 04:58:32;;;;;;;3.65;1.73;;;12.50;99.90;;;;;;4882593;29;20503;-73
2023/08/09 05:00:59;;;;;;;4.35;2.10;;;12.50;99.90;;;;;;4872299;29;20077;-73
2023/08/09 05:03:24;;;;;;;5.95;1.85;;;12.60;99.90;;;;;;4885895;29;20044;-72
2023/08/09 05:05:50;;;;;;;4.72;1.58;;;12.60;99.90;;;;;;4883143;29;20514;-74
2023/08/09 05:08:16;;;;;;;3.78;1.65;;;12.70;99.90;;;;;;4881065;29;20479;-74
2023/08/09 05:10:42;;;;;;;6.97;1.60;;;12.70;99.90;;;;;;4873235;29;20488;-75
2023/08/09 05:13:07;;;;;;;5.93;2.10;;;12.80;99.90;;;;;;4849051;29;20573;-73
2023/08/09 05:15:33;;;;;;;5.45;1.80;;;12.80;99.90;;;;;;4884919;29;20080;-73
2023/08/09 05:17:59;;;;;;;5.40;1.85;;;13.00;99.90;;;;;;4879020;29;20049;-73
2023/08/09 05:20:25;;;;;;;6.60;1.92;;;13.10;99.90;;;;;;4881742;29;20060;-72
2023/08/09 05:22:51;;;;;;;6.00;1.83;;;13.20;99.90;;;;;;4878786;29;20053;-73
2023/08/09 05:25:18;;;;;;;4.75;1.80;;;13.30;99.90;;;;;;4878476;29;20053;-73
2023/08/09 05:27:47;;;;;;;6.97;1.95;;;13.90;99.90;;;;;;4882706;29;20056;-74
2023/08/09 05:30:16;;;;;;;4.30;1.67;;;14.70;99.90;;;;;;4868952;29;20503;-73
2023/08/09 05:32:42;;;;;;;3.70;1.65;;;15.70;99.90;;;;;;4879394;29;20111;-72
2023/08/09 05:35:08;;;;;;;3.20;1.40;;;16.60;99.90;;;;;;4879097;29;20080;-73
2023/08/09 05:37:34;;;;;;;4.43;1.40;;;17.40;99.90;;;;;;4878412;29;20067;-76
2023/08/09 05:39:59;;;;;;;5.97;1.70;;;18.10;99.90;;;;;;4865638;29;20052;-78
2023/08/09 05:42:25;;;;;;;4.05;1.50;;;18.70;99.90;;;;;;4882067;29;20049;-77
2023/08/09 05:44:51;;;;;;;3.38;1.48;;;19.40;99.90;;;;;;4867228;29;20049;-77
2023/08/09 05:47:17;;;;;;;4.95;1.63;;;19.90;99.90;;;;;;4862853;29;20155;-73
2023/08/09 05:49:42;;;;;;;6.60;1.92;;;20.30;99.90;;;;;;4879472;29;20049;-77
2023/08/09 05:52:08;;;;;;;1.80;1.20;;;20.60;99.90;;;;;;4885393;29;20483;-79
2023/08/09 05:54:34;;;;;;;4.75;1.67;;;21.20;99.90;;;;;;4865239;29;20056;-80
2023/08/09 05:57:01;;;;;;;5.30;1.67;;;21.50;99.90;;;;;;4880530;29;20519;-82
2023/08/09 05:59:26;;;;;;;8.88;1.48;;;22.10;99.90;;;;;;4867492;29;20061;-81
2023/08/09 06:01:52;;;;;;;4.03;1.40;;;22.60;99.90;;;;;;4884168;29;20048;-81
2023/08/09 06:04:18;;;;;;;5.88;1.55;;;23.00;99.00;;;;;;4881115;29;20076;-81
2023/08/09 06:06:45;;;;;;;4.47;1.70;;;23.50;98.20;;;;;;4879622;29;20053;-79
2023/08/09 06:09:10;;;;;;;6.05;1.45;;;24.00;98.10;;;;;;4864249;29;20136;-78
2023/08/09 06:11:36;;;;;;;2.65;1.30;;;24.30;97.50;;;;;;4882486;29;20132;-81
2023/08/09 06:14:03;;;;;;;5.40;1.30;;;24.30;96.90;;;;;;4883584;29;20495;-80
2023/08/09 06:16:29;;;;;;;6.38;1.40;;;24.60;96.90;;;;;;4888029;29;20063;-81
2023/08/09 06:18:55;;;;;;;5.20;1.33;;;24.80;96.30;;;;;;4880163;29;20037;-81
2023/08/09 06:21:20;;;;;;;4.03;1.40;;;25.00;95.40;;;;;;4879451;29;20070;-78
2023/08/09 06:23:46;;;;;;;3.63;1.17;;;25.00;96.00;;;;;;4869271;29;20158;-79
2023/08/09 06:26:12;;;;;;;4.85;1.60;;;25.30;95.80;;;;;;4874040;29;20079;-81
2023/08/09 06:28:38;;;;;;;3.10;1.25;;;25.50;95.40;;;;;;4877417;29;20076;-78
2023/08/09 06:31:04;;;;;;;4.10;1.15;;;25.50;95.00;;;;;;4876628;29;20045;-81
2023/08/09 06:33:30;;;;;;;3.50;1.40;;;25.60;95.00;;;;;;4880000;29;20077;-83
2023/08/09 06:35:56;;;;;;;4.22;1.42;;;25.70;95.10;;;;;;4879771;29;20471;-81
2023/08/09 06:38:22;;;;;;;7.47;1.58;;;26.20;95.20;;;;;;4881214;29;20056;-82
2023/08/09 06:40:48;;;;;;;3.58;1.30;;;26.50;94.80;;;;;;4875581;29;20067;-81
2023/08/09 06:43:14;;;;;;;4.97;1.27;;;26.50;94.10;;;;;;4880383;29;20061;-82
2023/08/09 06:45:40;;;;;;;5.10;1.63;;;26.60;94.20;;;;;;4878764;29;20616;-76
2023/08/09 06:48:07;;;;;;;4.88;1.30;;;26.90;93.10;;;;;;4881247;29;20115;-82
2023/08/09 06:50:34;;;;;;;2.63;1.10;;;26.70;93.90;;;;;;4884822;29;20156;-80
2023/08/09 06:52:59;;;;;;;3.38;1.33;;;26.80;93.60;;;;;;4863202;29;20037;-80
2023/08/09 06:55:25;;;;;;;5.43;1.40;;;26.80;93.60;;;;;;4862563;29;20104;-79
2023/08/09 06:57:51;;;;;;;7.15;1.48;;;27.00;93.70;;;;;;4877914;29;20055;-80
2023/08/09 07:00:17;;;;;;;3.72;1.33;;;27.20;93.70;;;;;;4864657;29;20055;-80
2023/08/09 07:02:45;;;;;;;4.55;1.30;;;27.70;93.60;;;;;;4877763;29;20093;-79
2023/08/09 07:05:15;;;;;;;3.30;1.25;;;28.10;93.30;;;;;;4862691;29;20193;-80
2023/08/09 07:07:45;;;;;;;3.25;1.27;;;28.40;92.90;;;;;;4876718;29;20049;-80
2023/08/09 07:10:11;;;;;;;4.03;1.25;;;28.50;91.90;;;;;;4884900;29;20075;-80
2023/08/09 07:12:37;;;;;;;3.22;1.27;;;28.80;92.70;;;;;;4884645;29;20132;-82
2023/08/09 07:15:08;;;;;;;4.85;1.50;;;29.00;92.30;;;;;;4876512;29;20072;-80
2023/08/09 07:17:34;;;;;;;6.47;1.23;;;29.10;91.90;;;;;;4875221;29;21820;-78
2023/08/09 07:20:01;;;;;;;4.22;1.30;;;29.60;92.00;;;;;;4877257;29;20057;-81
2023/08/09 07:22:27;;;;;;;3.65;1.35;;;29.80;91.90;;;;;;4869855;29;20061;-79
2023/08/09 07:24:52;;;;;;;4.53;1.40;;;30.00;91.60;;;;;;4878172;29;20052;-77
2023/08/09 07:27:18;;;;;;;4.85;1.20;;;30.10;91.20;;;;;;4850487;29;20041;-77
2023/08/09 07:29:44;;;;;;;2.53;1.30;;;30.10;90.90;;;;;;4886609;29;20047;-76
2023/08/09 07:32:10;;;;;;;7.97;1.83;;;30.20;90.40;;;;;;4878459;29;20045;-79
2023/08/09 07:34:36;;;;;;;3.78;1.30;;;30.30;90.80;;;;;;4879488;29;20053;-79
2023/08/09 07:37:02;;;;;;;4.05;1.50;;;30.60;90.70;;;;;;4862967;29;20208;-78
2023/08/09 07:39:28;;;;;;;4.40;1.33;;;31.00;90.60;;;;;;4861527;29;20135;-76
2023/08/09 07:41:54;;;;;;;3.28;1.30;;;31.30;90.40;;;;;;4887196;29;20128;-77
2023/08/09 07:44:20;;;;;;;5.28;1.60;;;31.40;90.10;;;;;;4876493;29;20285;-79
2023/08/09 07:46:46;;;;;;;3.05;1.10;;;31.30;89.10;;;;;;4883323;29;20124;-77
2023/08/09 07:49:12;;;;;;;5.32;1.52;;;31.20;87.90;;;;;;4864796;29;20053;-78
2023/08/09 07:51:37;;;;;;;4.65;1.40;;;31.30;88.20;;;;;;4880204;29;20160;-75
2023/08/09 07:54:03;;;;;;;4.32;1.10;;;31.50;88.50;;;;;;4878919;29;20140;-77
2023/08/09 07:56:29;;;;;;;3.95;1.27;;;31.40;86.90;;;;;;4882607;29;20078;-75
2023/08/09 07:58:55;;;;;;;2.60;1.27;;;31.50;86.90;;;;;;4883788;29;20053;-78
2023/08/09 08:01:20;;;;;;;3.28;1.10;;;31.80;86.40;;;;;;4877038;29;20186;-76
2023/08/09 08:03:46;;;;;;;5.50;1.10;;;31.80;86.30;;;;;;4875380;29;20046;-76
2023/08/09 08:06:12;;;;;;;6.60;1.30;;;31.80;86.90;;;;;;4877457;29;20097;-75
2023/08/09 08:08:38;;;;;;;5.82;1.30;;;31.40;85.20;;;;;;4878872;29;20096;-69
2023/08/09 08:11:03;;;;;;;6.57;1.60;;;31.50;86.00;;;;;;4880678;29;20041;-71
2023/08/09 08:13:29;;;;;;;4.60;1.40;;;31.40;86.70;;;;;;4881169;29;20075;-79
2023/08/09 08:15:55;;;;;;;3.90;1.30;;;31.50;86.30;;;;;;4879782;29;20184;-77
2023/08/09 08:18:21;;;;;;;6.88;1.55;;;31.80;85.60;;;;;;4850672;29;20414;-77
2023/08/09 08:20:47;;;;;;;4.43;1.33;;;31.60;86.50;;;;;;4885827;29;20102;-72
2023/08/09 08:23:12;;;;;;;4.03;1.23;;;31.60;86.60;;;;;;4873525;29;20056;-77
2023/08/09 08:25:38;;;;;;;2.83;1.20;;;31.40;85.70;;;;;;4875977;29;33927;-76
2023/08/09 08:28:05;;;;;;;4.82;1.63;;;31.20;84.40;;;;;;4864117;29;20136;-75
2023/08/09 08:30:31;;;;;;;2.97;1.17;;;31.20;83.70;;;;;;4867425;29;20543;-72
2023/08/09 08:32:57;;;;;;;3.28;1.10;;;30.60;84.00;;;;;;4889736;29;20049;-72
2023/08/09 08:35:24;;;;;;;4.80;1.10;;;30.00;85.10;;;;;;4877243;29;20053;-75
2023/08/09 08:37:53;;;;;;;6.32;1.55;;;30.00;86.40;;;;;;4864599;29;20057;-74
2023/08/09 08:40:20;;;;;;;3.67;1.40;;;30.10;85.00;;;;;;4870144;29;20049;-71
2023/08/09 08:42:50;;;;;;;2.92;1.30;;;30.40;85.40;;;;;;4862680;29;20188;-74
2023/08/09 08:45:19;;;;;;;4.10;1.30;;;30.40;84.80;;;;;;4871554;29;20053;-74
2023/08/09 08:47:46;;;;;;;3.53;1.20;;;29.50;85.30;;;;;;4889733;29;20415;-72
2023/08/09 08:50:16;;;;;;;5.10;1.30;;;28.70;86.40;;;;;;4865904;29;20057;-77
2023/08/09 08:52:51;;;;;;;3.13;1.10;;;28.50;88.20;;;;;;4886297;29;20510;-75
2023/08/09 08:55:17;;;;;;;3.60;1.27;;;28.80;87.10;;;;;;4873658;29;20079;-77
2023/08/09 08:57:46;;;;;;;2.83;1.20;;;29.00;87.20;;;;;;4866508;29;20173;-75
2023/08/09 09:00:16;;;;;;;3.80;1.05;;;29.10;87.70;;;;;;4883387;29;20059;-78
2023/08/09 09:02:46;;;;;;;5.85;1.55;;;29.10;87.10;;;;;;4859507;29;20124;-77
2023/08/09 09:05:18;;;;;;;5.47;1.17;;;29.00;86.90;;;;;;4876730;29;20053;-77
2023/08/09 09:07:46;;;;;;;3.42;1.17;;;29.20;84.10;;;;;;4880065;29;20081;-73
2023/08/09 09:10:13;;;;;;;6.30;1.40;;;29.30;85.00;;;;;;4882569;29;20116;-78
2023/08/09 09:12:39;;;;;;;4.25;1.25;;;29.20;84.70;;;;;;4879946;29;20057;-77
2023/08/09 09:15:08;;;;;;;5.93;1.15;;;28.90;86.10;;;;;;4873931;29;20158;-76
2023/08/09 09:17:42;;;;;;;5.72;1.30;;;28.90;87.70;;;;;;4864243;29;20093;-76
2023/08/09 09:20:23;;;;;;;3.88;1.35;;;29.20;86.60;;;;;;4862652;29;20048;-77
2023/08/09 09:22:49;;;;;;;2.80;1.13;;;29.60;84.40;;;;;;4863772;29;20057;-74
2023/08/09 09:25:17;;;;;;;3.78;1.20;;;30.00;84.30;;;;;;4879235;29;20045;-78
2023/08/09 09:27:46;;;;;;;2.88;1.10;;;30.10;83.60;;;;;;4879251;29;20092;-77
2023/08/09 09:30:13;;;;;;;2.75;1.30;;;29.40;83.80;;;;;;4878040;29;20033;-74
2023/08/09 09:32:51;;;;;;;7.95;1.50;;;28.70;85.00;;;;;;4880408;29;20049;-76
2023/08/09 09:35:21;;;;;;;4.20;1.35;;;27.80;85.90;;;;;;4874662;29;20051;-78
2023/08/09 09:37:51;;;;;;;2.83;1.33;;;27.10;86.50;;;;;;4863027;29;20068;-77
2023/08/09 09:40:34;;;;;;;4.25;1.30;;;26.60;87.00;;;;;;4875382;29;20135;-76
2023/08/09 09:43:01;;;;;;;3.20;1.30;;;26.40;87.70;;;;;;4874755;29;20121;-78
2023/08/09 09:45:30;;;;;;;4.70;1.30;;;26.90;88.10;;;;;;4895706;29;20097;-78
2023/08/09 09:47:58;;;;;;;3.08;1.13;;;27.60;88.60;;;;;;4876217;29;20105;-78
2023/08/09 09:50:27;;;;;;;4.05;1.33;;;28.00;87.90;;;;;;4872212;29;20052;-75
2023/08/09 09:52:53;;;;;;;4.25;1.20;;;27.90;87.40;;;;;;4878061;29;20088;-75
2023/08/09 09:55:25;;;;;;;2.08;0.90;;;27.40;86.90;;;;;;4875535;29;20583;-78
2023/08/09 09:57:52;;;;;;;2.80;1.27;;;27.00;87.50;;;;;;4876795;29;20104;-76
2023/08/09 10:00:25;;;;;;;2.20;1.05;;;26.40;87.80;;;;;;4859869;29;20045;-77
2023/08/09 10:02:51;;;;;;;;;;;26.00;88.80;;;;;;4877527;29;20053;-76
2023/08/09 10:05:23;;;;;;;1.73;1.00;;;25.80;90.10;;;;;;4860947;29;20398;-75
2023/08/09 10:07:50;;;;;;;3.55;1.25;;;25.70;90.20;;;;;;4878860;29;20084;-77
2023/08/09 10:10:17;;;;;;;5.75;1.33;;;25.80;90.30;;;;;;4876057;29;20156;-77
2023/08/09 10:12:55;;;;;;;4.32;1.30;;;25.80;90.40;;;;;;4878788;29;20049;-76
2023/08/09 10:15:28;;;;;;;3.63;1.42;;;25.90;90.10;;;;;;4883611;29;20048;-76
2023/08/09 10:18:02;;;;;;;2.00;1.27;;;25.80;89.00;;;;;;4873697;29;20055;-75
2023/08/09 10:20:28;;;;;;;3.63;1.40;;;25.90;89.60;;;;;;4863387;29;20475;-77
2023/08/09 10:22:58;;;;;;;6.90;1.77;;;25.90;89.70;;;;;;4886682;29;20081;-75
2023/08/09 10:25:50;;;;;;;2.63;1.20;;;25.90;89.70;;;;;;4878199;29;20069;-74
2023/08/09 10:28:17;;;;;;;3.63;1.17;;;25.80;89.70;;;;;;4854661;29;20301;-77
2023/08/09 10:30:49;;;;;;;4.53;1.30;;;25.90;90.40;;;;;;4870193;29;20061;-74
2023/08/09 10:33:18;;;;;;;2.78;1.27;;;25.90;89.80;;;;;;4879330;29;20128;-76
2023/08/09 10:35:50;;;;;;;2.55;1.13;;;25.60;89.40;;;;;;4877037;29;20153;-76
2023/08/09 10:38:38;;;;;;;3.40;1.20;;;25.30;89.60;;;;;;4881484;29;20041;-78
2023/08/09 10:41:09;;;;;;;2.92;1.05;;;25.30;90.30;;;;;;4885513;29;20098;-76
2023/08/09 10:43:35;;;;;;;3.00;1.50;;;25.20;90.70;;;;;;4879559;29;20064;-76
2023/08/09 10:46:24;;;;;;;2.88;1.30;;;25.30;90.50;;;;;;4873660;29;20048;-75
2023/08/09 10:48:58;;;;;;;2.65;1.33;;;25.30;89.70;;;;;;4876094;29;20056;-78
2023/08/09 10:51:24;;;;;;;3.67;1.20;;;25.40;89.60;;;;;;4874862;29;20056;-77
2023/08/09 10:54:04;;;;;;;4.28;1.20;;;25.30;88.80;;;;;;4879056;29;20056;-75
2023/08/09 10:56:34;;;;;;;4.80;1.35;;;25.30;88.60;;;;;;4889824;29;20064;-77
2023/08/09 10:59:05;;;;;;;3.97;1.23;;;25.20;89.40;;;;;;4883352;29;20048;-76
2023/08/09 11:01:34;;;;;;;3.78;1.30;;;25.20;90.40;;;;;;4877417;29;20081;-78
2023/08/09 11:04:04;;;;;;;4.80;1.40;;;25.20;90.70;;;;;;4869610;29;20057;-75
2023/08/09 11:06:44;;;;;;;2.10;1.15;;;25.30;89.40;;;;;;4886552;29;20068;-79
2023/08/09 11:09:14;;;;;;;4.68;1.65;;;25.30;89.20;;;;;;4876921;29;20563;-79
2023/08/09 11:11:43;;;;;;;5.15;1.30;;;25.30;90.00;;;;;;4862920;29;20448;-78
2023/08/09 11:14:10;;;;;;;3.92;1.38;;;25.00;89.50;;;;;;4870754;29;20055;-78
2023/08/09 11:16:36;;;;;;;5.75;1.27;;;24.80;89.80;;;;;;4893425;29;20049;-77
2023/08/09 11:19:04;;;;;;;3.20;1.30;;;24.90;90.40;;;;;;4888417;29;20078;-75
2023/08/09 11:21:48;;;;;;;5.88;1.67;;;24.80;90.40;;;;;;4877781;29;20459;-78
2023/08/09 11:24:17;;;;;;;3.67;1.40;;;24.80;90.70;;;;;;4878054;29;20128;-79
2023/08/09 11:26:48;;;;;;;2.58;1.33;;;24.60;90.70;;;;;;4882509;29;20045;-79
2023/08/09 11:29:18;;;;;;;3.50;1.48;;;24.80;91.40;;;;;;4859185;29;20400;-77
2023/08/09 11:31:46;;;;;;;6.20;1.80;;;24.70;90.60;;;;;;4873072;29;20048;-76
2023/08/09 11:34:14;;;;;;;2.58;1.30;;;24.60;90.80;;;;;;4885877;29;20060;-77
2023/08/09 11:36:42;;;;;;;7.38;1.35;;;24.50;90.60;;;;;;4880037;29;20511;-77
2023/08/09 11:39:10;;;;;;;2.60;1.20;;;24.50;90.70;;;;;;4885454;29;20127;-75
2023/08/09 11:41:54;;;;;;;4.47;1.55;;;24.50;91.10;;;;;;4877506;29;20115;-77
2023/08/09 11:44:43;;;;;;;3.97;1.33;;;24.40;91.40;;;;;;4878930;29;20060;-77
2023/08/09 11:47:09;;;;;;;2.55;1.25;;;24.10;91.60;;;;;;4882192;29;20044;-74
2023/08/09 11:49:35;;;;;;;2.22;1.30;;;23.90;91.80;;;;;;4845820;29;20045;-77
2023/08/09 11:52:02;;;;;;;5.00;1.48;;;23.80;92.20;;;;;;4876932;29;20041;-76
2023/08/09 11:54:30;;;;;;;4.53;1.40;;;23.80;92.20;;;;;;4876865;29;20204;-76
2023/08/09 11:56:56;;;;;;;2.97;1.20;;;23.80;92.40;;;;;;4878077;29;20049;-77
2023/08/09 11:59:24;;;;;;;4.25;1.65;;;23.90;92.20;;;;;;4877258;29;20090;-77
2023/08/09 12:01:53;;;;;;;4.68;1.48;;;23.90;91.90;;;;;;4877770;29;20049;-78
2023/08/09 12:04:23;;;;;;;4.82;1.50;;;23.70;91.80;;;;;;4878019;29;20140;-76
2023/08/09 12:06:51;;;;;;;2.30;1.23;;;23.60;91.70;;;;;;4879344;29;20378;-77
2023/08/09 12:09:35;;;;;;;4.57;1.52;;;23.60;91.70;;;;;;4873384;29;20053;-79
2023/08/09 12:12:07;;;;;;;3.20;1.40;;;23.50;92.00;;;;;;4889832;29;20045;-77
2023/08/09 12:14:35;;;;;;;3.10;1.30;;;23.40;91.20;;;;;;4858546;29;20049;-77
2023/08/09 12:17:01;;;;;;;3.80;1.42;;;23.30;91.20;;;;;;4880870;29;20127;-78
2023/08/09 12:19:28;;;;;;;3.33;1.33;;;23.20;91.10;;;;;;4889644;29;20049;-79
2023/08/09 12:21:54;;;;;;;2.78;1.35;;;23.10;91.50;;;;;;4882148;29;20060;-77
2023/08/09 12:24:20;;;;;;;2.42;1.15;;;23.20;92.20;;;;;;4879947;29;20057;-77
2023/08/09 12:26:45;;;;;;;4.18;1.45;;;23.20;92.00;;;;;;4863721;29;20053;-75
2023/08/09 12:29:11;;;;;;;4.43;1.50;;;23.10;91.80;;;;;;4865128;29;20048;-77
2023/08/09 12:31:37;;;;;;;3.28;1.08;;;23.20;92.00;;;;;;4889638;29;20052;-78
2023/08/09 12:34:04;;;;;;;3.53;1.50;;;23.30;92.40;;;;;;4881543;29;20101;-79
2023/08/09 12:36:31;;;;;;;4.85;1.70;;;23.40;92.50;;;;;;4878819;29;20112;-79
2023/08/09 12:38:57;;;;;;;3.92;1.17;;;23.50;92.60;;;;;;4880895;29;20116;-77
2023/08/09 12:41:23;;;;;;;4.20;1.63;;;23.60;92.70;;;;;;4880929;29;20451;-80
2023/08/09 12:43:49;;;;;;;3.80;1.50;;;23.60;91.90;;;;;;4882513;29;20094;-79
2023/08/09 12:46:15;;;;;;;4.07;1.38;;;23.50;92.00;;;;;;4882261;29;20053;-75
2023/08/09 12:48:41;;;;;;;2.67;1.25;;;23.40;91.40;;;;;;4882050;29;20053;-80
2023/08/09 12:51:07;;;;;;;3.47;1.10;;;23.30;91.90;;;;;;4879704;29;20193;-79
2023/08/09 12:53:32;;;;;;;5.10;1.60;;;23.20;91.70;;;;;;4860767;29;20052;-80
2023/08/09 12:55:58;;;;;;;4.07;1.50;;;23.20;92.00;;;;;;4890792;29;20049;-79
2023/08/09 12:58:24;;;;;;;2.85;1.27;;;23.40;92.00;;;;;;4863466;29;20057;-79
2023/08/09 13:00:50;;;;;;;4.95;1.60;;;23.60;91.90;;;;;;4881941;29;20086;-79
2023/08/09 13:03:16;;;;;;;4.75;1.50;;;23.70;91.60;;;;;;4882342;29;20052;-79
2023/08/09 13:05:43;;;;;;;3.20;1.35;;;23.70;91.80;;;;;;4885415;29;20140;-79
2023/08/09 13:08:09;;;;;;;4.68;1.60;;;23.60;91.80;;;;;;4888703;29;20049;-79